createdAt,value
2023-04-16T00:01:18.822Z,21.60
2023-04-16T00:03:47.665Z,24.90
2023-04-16T00:06:16.198Z,26.70
2023-04-16T00:08:46.835Z,24.20
2023-04-16T00:13:45.438Z,22.60
2023-04-16T00:16:14.034Z,23.30
2023-04-16T00:18:42.401Z,24.10
2023-04-16T00:21:10.988Z,24.60
2023-04-16T00:23:39.378Z,27.30
2023-04-16T00:26:08.990Z,27.80
2023-04-16T00:28:37.569Z,26.70
2023-04-16T00:31:06.136Z,23.80
2023-04-16T00:33:34.739Z,28.90
2023-04-16T00:36:05.457Z,25.90
2023-04-16T00:38:34.156Z,29.70
2023-04-16T00:41:02.738Z,26.30
2023-04-16T00:43:32.038Z,31.40
2023-04-16T00:46:00.625Z,24.50
2023-04-16T00:48:32.078Z,27.70
2023-04-16T00:51:01.895Z,28.00
2023-04-16T00:55:59.266Z,28.90
2023-04-16T00:58:28.158Z,26.00
2023-04-16T01:00:57.051Z,38.20
2023-04-16T01:03:27.673Z,31.10
2023-04-16T01:05:56.280Z,25.60
2023-04-16T01:08:25.877Z,32.30
2023-04-16T01:10:54.258Z,30.00
2023-04-16T01:13:22.845Z,30.60
2023-04-16T01:15:51.666Z,29.10
2023-04-16T01:18:21.487Z,27.90
2023-04-16T01:20:51.376Z,33.30
2023-04-16T01:23:20.161Z,28.40
2023-04-16T01:25:48.749Z,29.70
2023-04-16T01:28:17.535Z,32.80
2023-04-16T01:30:46.018Z,31.80
2023-04-16T01:33:41.332Z,31.80
2023-04-16T01:36:10.117Z,33.20
2023-04-16T01:38:39.211Z,32.40
2023-04-16T01:41:08.001Z,31.20
2023-04-16T01:43:38.467Z,27.30
2023-04-16T01:46:19.327Z,37.00
2023-04-16T01:48:47.790Z,37.10
2023-04-16T01:51:16.786Z,39.50
2023-04-16T01:53:46.284Z,21.40
2023-04-16T01:56:14.671Z,35.20
2023-04-16T01:58:43.260Z,32.30
2023-04-16T02:01:13.339Z,33.70
2023-04-16T02:03:42.369Z,30.30
2023-04-16T02:06:11.362Z,34.50
2023-04-16T02:08:39.845Z,31.50
2023-04-16T02:11:08.688Z,31.50
2023-04-16T02:13:37.628Z,33.00
2023-04-16T02:16:06.651Z,34.20
2023-04-16T02:18:45.069Z,38.10
2023-04-16T02:21:14.554Z,33.30
2023-04-16T02:23:46.078Z,36.00
2023-04-16T02:26:14.472Z,37.20
2023-04-16T02:28:43.263Z,32.40
2023-04-16T02:31:12.159Z,35.90
2023-04-16T02:33:45.248Z,36.30
2023-04-16T02:36:13.832Z,35.70
2023-04-16T02:38:42.208Z,34.10
2023-04-16T02:41:10.691Z,35.60
2023-04-16T02:43:39.175Z,35.80
2023-04-16T02:46:07.706Z,33.00
2023-04-16T02:48:36.349Z,37.30
2023-04-16T02:51:05.079Z,32.20
2023-04-16T02:53:33.722Z,33.20
2023-04-16T02:56:02.154Z,32.40
2023-04-16T02:58:30.890Z,32.40
2023-04-16T03:00:59.600Z,34.20
2023-04-16T03:03:28.413Z,30.70
2023-04-16T03:05:56.863Z,34.20
2023-04-16T03:08:26.868Z,35.20
2023-04-16T03:10:55.355Z,33.90
2023-04-16T03:13:23.830Z,38.10
2023-04-16T03:15:52.278Z,34.40
2023-04-16T03:18:21.006Z,32.80
2023-04-16T03:20:54.300Z,36.30
2023-04-16T03:23:23.500Z,31.70
2023-04-16T03:25:52.491Z,31.40
2023-04-16T03:28:21.468Z,32.10
2023-04-16T03:30:53.568Z,32.80
2023-04-16T03:33:23.780Z,33.80
2023-04-16T03:35:58.916Z,28.50
2023-04-16T03:38:29.754Z,29.50
2023-04-16T03:40:59.066Z,34.00
2023-04-16T03:43:27.740Z,31.50
2023-04-16T03:45:56.119Z,34.00
2023-04-16T03:48:25.016Z,28.50
2023-04-16T03:50:54.208Z,32.70
2023-04-16T03:53:23.839Z,27.30
2023-04-16T03:55:52.616Z,27.00
2023-04-16T03:58:22.034Z,29.70
2023-04-16T04:00:52.144Z,26.70
2023-04-16T04:03:21.546Z,25.00
2023-04-16T04:05:50.948Z,30.30
2023-04-16T04:08:31.817Z,26.10
2023-04-16T04:11:00.308Z,23.50
2023-04-16T04:13:29.292Z,27.00
2023-04-16T04:15:57.893Z,26.10
2023-04-16T04:18:28.306Z,29.90
2023-04-16T04:20:57.511Z,26.50
2023-04-16T04:23:28.445Z,27.70
2023-04-16T04:25:56.849Z,25.70
2023-04-16T04:28:26.439Z,25.00
2023-04-16T04:30:56.252Z,26.80
2023-04-16T04:35:24.549Z,26.90
2023-04-16T04:37:54.045Z,26.30
2023-04-16T04:40:23.043Z,23.10
2023-04-16T04:42:53.772Z,27.20
2023-04-16T04:47:55.880Z,24.60
2023-04-16T04:50:24.345Z,23.10
2023-04-16T04:52:53.030Z,24.10
2023-04-16T04:55:21.415Z,21.50
2023-04-16T04:57:50.228Z,19.50
2023-04-16T05:00:18.785Z,22.30
2023-04-16T05:02:53.815Z,19.50
2023-04-16T05:05:22.868Z,22.50
2023-04-16T05:07:51.606Z,20.40
2023-04-16T05:10:20.001Z,18.90
2023-04-16T05:12:49.075Z,20.70
2023-04-16T05:15:17.872Z,22.20
2023-04-16T05:17:46.712Z,20.60
2023-04-16T05:20:15.361Z,18.70
2023-04-16T05:22:44.103Z,17.80
2023-04-16T05:25:12.625Z,21.80
2023-04-16T05:27:41.621Z,15.30
2023-04-16T05:30:10.930Z,18.20
2023-04-16T05:32:40.082Z,18.00
2023-04-16T05:35:09.837Z,18.70
2023-04-16T05:37:38.210Z,15.70
2023-04-16T05:40:07.443Z,15.90
2023-04-16T05:42:37.630Z,16.80
2023-04-16T05:45:07.166Z,16.90
2023-04-16T05:47:36.136Z,24.00
2023-04-16T05:50:05.184Z,14.90
2023-04-16T05:52:33.817Z,21.00
2023-04-16T05:55:02.235Z,16.30
2023-04-16T05:57:30.979Z,17.30
2023-04-16T05:59:59.366Z,15.10
2023-04-16T06:02:28.199Z,14.40
2023-04-16T06:04:56.833Z,13.20
2023-04-16T06:07:25.626Z,15.40
2023-04-16T06:09:54.214Z,13.90
2023-04-16T06:12:22.699Z,15.30
2023-04-16T06:14:51.394Z,15.00
2023-04-16T06:17:20.263Z,11.30
2023-04-16T06:19:48.592Z,13.30
2023-04-16T06:22:18.158Z,16.60
2023-04-16T06:24:46.848Z,12.60
2023-04-16T06:27:15.332Z,13.10
2023-04-16T06:29:43.820Z,15.30
2023-04-16T06:32:12.192Z,12.90
2023-04-16T06:34:41.803Z,12.60
2023-04-16T06:37:10.807Z,12.90
2023-04-16T06:39:39.282Z,12.30
2023-04-16T06:42:08.065Z,11.90
2023-04-16T06:44:36.757Z,12.40
2023-04-16T06:47:05.674Z,10.70
2023-04-16T06:49:34.029Z,12.10
2023-04-16T06:52:05.686Z,11.80
2023-04-16T06:54:34.672Z,11.90
2023-04-16T06:57:03.054Z,11.60
2023-04-16T06:59:32.692Z,14.70
2023-04-16T07:04:30.756Z,12.30
2023-04-16T07:06:59.137Z,13.30
2023-04-16T07:09:27.723Z,15.00
2023-04-16T07:11:56.311Z,13.00
2023-04-16T07:14:24.690Z,14.60
2023-04-16T07:16:53.417Z,14.40
2023-04-16T07:19:21.958Z,12.80
2023-04-16T07:21:50.752Z,14.70
2023-04-16T07:24:19.129Z,18.40
2023-04-16T07:26:47.610Z,15.10
2023-04-16T07:29:15.890Z,18.50
2023-04-16T07:31:45.614Z,15.90
2023-04-16T07:34:13.980Z,15.70
2023-04-16T07:36:42.463Z,15.50
2023-04-16T07:39:11.865Z,15.30
2023-04-16T07:41:41.386Z,15.30
2023-04-16T07:44:09.770Z,16.60
2023-04-16T07:46:46.941Z,17.60
2023-04-16T07:49:16.147Z,18.60
2023-04-16T07:51:44.722Z,20.20
2023-04-16T07:54:13.224Z,15.30
2023-04-16T07:56:41.795Z,17.90
2023-04-16T07:59:22.139Z,18.00
2023-04-16T08:01:52.940Z,14.70
2023-04-16T08:04:25.678Z,15.50
2023-04-16T08:06:54.775Z,15.00
2023-04-16T08:09:24.004Z,15.10
2023-04-16T08:11:52.544Z,18.50
2023-04-16T08:14:21.454Z,16.60
2023-04-16T08:16:50.041Z,16.30
2023-04-16T08:19:18.921Z,15.70
2023-04-16T08:21:47.508Z,14.40
2023-04-16T08:24:15.990Z,17.60
2023-04-16T08:26:44.375Z,19.40
2023-04-16T08:29:12.930Z,15.80
2023-04-16T08:31:41.774Z,14.30
2023-04-16T08:34:11.782Z,18.50
2023-04-16T08:36:41.377Z,20.90
2023-04-16T08:39:10.093Z,17.30
2023-04-16T08:41:39.816Z,15.90
2023-04-16T08:44:09.168Z,14.30
2023-04-16T08:46:38.136Z,14.50
2023-04-16T08:49:07.216Z,23.10
2023-04-16T08:51:36.358Z,19.50
2023-04-16T08:54:12.469Z,16.80
2023-04-16T08:56:42.841Z,21.60
2023-04-16T08:59:12.503Z,21.00
2023-04-16T09:01:42.204Z,18.30
2023-04-16T09:04:11.278Z,17.80
2023-04-16T09:06:41.695Z,20.10
2023-04-16T09:09:10.254Z,17.50
2023-04-16T09:11:39.887Z,18.60
2023-04-16T09:14:10.016Z,20.00
2023-04-16T09:19:08.026Z,18.50
2023-04-16T09:21:37.205Z,19.10
2023-04-16T09:24:05.678Z,21.30
2023-04-16T09:26:34.874Z,21.80
2023-04-16T09:29:03.473Z,21.70
2023-04-16T09:31:31.775Z,20.80
2023-04-16T09:34:08.735Z,22.20
2023-04-16T09:36:39.052Z,21.20
2023-04-16T09:39:07.568Z,24.80
2023-04-16T09:41:39.882Z,22.00
2023-04-16T09:44:08.406Z,23.60
2023-04-16T09:46:41.297Z,30.60
2023-04-16T09:49:11.047Z,23.30
2023-04-16T09:51:49.834Z,26.00
2023-04-16T09:54:18.203Z,26.70
2023-04-16T09:56:47.085Z,26.50
2023-04-16T09:59:19.512Z,23.60
2023-04-16T10:01:49.946Z,24.70
2023-04-16T10:04:18.578Z,31.50
2023-04-16T10:07:04.191Z,25.90
2023-04-16T10:09:37.659Z,26.30
2023-04-16T10:12:07.061Z,27.80
2023-04-16T10:14:35.973Z,30.70
2023-04-16T10:17:06.624Z,21.10
2023-04-16T10:19:35.888Z,26.50
2023-04-16T10:22:05.261Z,31.20
2023-04-16T10:24:34.694Z,32.40
2023-04-16T10:27:03.283Z,34.60
2023-04-16T10:29:31.983Z,28.60
2023-04-16T10:32:00.857Z,37.00
2023-04-16T10:34:29.646Z,28.70
2023-04-16T10:36:58.031Z,26.30
2023-04-16T10:39:28.077Z,29.70
2023-04-16T10:44:37.812Z,27.50
2023-04-16T10:47:13.569Z,28.20
2023-04-16T10:49:42.757Z,26.30
2023-04-16T10:52:17.478Z,30.30
2023-04-16T10:54:46.954Z,28.60
2023-04-16T10:57:18.544Z,33.10
2023-04-16T10:59:47.031Z,32.20
2023-04-16T11:02:17.173Z,32.30
2023-04-16T11:07:18.624Z,37.80
2023-04-16T11:10:00.516Z,39.40
2023-04-16T11:12:29.616Z,36.40
2023-04-16T11:15:02.287Z,37.70
2023-04-16T11:17:36.701Z,42.70
2023-04-16T11:20:19.864Z,43.80
2023-04-16T11:22:53.853Z,46.40
2023-04-16T11:25:34.359Z,40.20
2023-04-16T11:28:02.901Z,42.80
2023-04-16T11:30:36.098Z,42.30
2023-04-16T11:33:06.046Z,39.20
2023-04-16T11:35:36.140Z,44.50
2023-04-16T11:38:07.719Z,40.20
2023-04-16T11:40:36.593Z,50.30
2023-04-16T11:43:13.666Z,42.00
2023-04-16T11:46:05.334Z,38.30
2023-04-16T11:48:52.383Z,36.30
2023-04-16T11:51:22.127Z,36.70
2023-04-16T11:53:54.404Z,40.20
2023-04-16T11:56:28.661Z,43.60
2023-04-16T11:59:19.224Z,38.40
2023-04-16T12:01:52.667Z,45.70
2023-04-16T12:04:25.197Z,50.30
2023-04-16T12:07:13.020Z,51.50
2023-04-16T12:09:42.892Z,50.10
2023-04-16T12:12:32.087Z,55.30
2023-04-16T12:15:04.036Z,56.40
2023-04-16T12:17:33.562Z,54.30
2023-04-16T12:20:06.363Z,63.00
2023-04-16T12:22:37.300Z,56.30
2023-04-16T12:25:11.994Z,52.40
2023-04-16T12:27:43.998Z,54.70
2023-04-16T12:30:13.262Z,51.70
2023-04-16T12:32:44.038Z,49.70
2023-04-16T12:35:12.839Z,55.30
2023-04-16T12:37:42.016Z,51.10
2023-04-16T12:40:11.177Z,50.10
2023-04-16T12:42:39.905Z,51.80
2023-04-16T12:45:09.119Z,53.60
2023-04-16T12:47:37.817Z,45.50
2023-04-16T12:50:07.426Z,46.30
2023-04-16T12:52:36.191Z,52.40
2023-04-16T12:55:05.287Z,49.60
2023-04-16T12:57:33.874Z,55.50
2023-04-16T13:00:02.368Z,51.80
2023-04-16T13:02:32.734Z,52.60
2023-04-16T13:05:01.799Z,51.00
2023-04-16T13:07:32.528Z,51.00
2023-04-16T13:10:01.213Z,48.30
2023-04-16T13:12:29.803Z,44.00
2023-04-16T13:14:58.275Z,45.60
2023-04-16T13:17:26.685Z,48.80
2023-04-16T13:19:55.238Z,54.70
2023-04-16T13:22:24.336Z,54.40
2023-04-16T13:24:53.124Z,51.90
2023-04-16T13:27:21.711Z,54.10
2023-04-16T13:29:50.095Z,48.90
2023-04-16T13:32:19.264Z,46.50
2023-04-16T13:34:47.872Z,37.30
2023-04-16T13:37:16.255Z,50.90
2023-04-16T13:39:45.877Z,51.90
2023-04-16T13:42:14.558Z,47.50
2023-04-16T13:44:42.930Z,43.50
2023-04-16T13:47:12.233Z,45.60
2023-04-16T13:49:40.721Z,31.40
2023-04-16T13:52:09.305Z,37.80
2023-04-16T13:54:38.396Z,41.00
2023-04-16T13:57:07.297Z,49.90
2023-04-16T13:59:36.591Z,44.60
2023-04-16T14:02:05.911Z,40.20
2023-04-16T14:04:34.481Z,40.70
2023-04-16T14:07:04.396Z,36.00
2023-04-16T14:09:32.775Z,36.10
2023-04-16T14:12:01.336Z,37.50
2023-04-16T14:14:30.359Z,39.40
2023-04-16T14:16:59.348Z,39.20
2023-04-16T14:19:27.730Z,37.80
2023-04-16T14:21:56.117Z,37.60
2023-04-16T14:24:24.592Z,38.30
2023-04-16T14:26:52.981Z,45.60
2023-04-16T14:29:21.380Z,42.20
2023-04-16T14:31:50.715Z,45.50
2023-04-16T14:34:19.348Z,44.20
2023-04-16T14:36:49.365Z,44.90
2023-04-16T14:41:46.430Z,50.90
2023-04-16T14:44:14.931Z,44.90
2023-04-16T14:46:44.030Z,50.50
2023-04-16T14:49:12.733Z,46.40
2023-04-16T14:51:41.491Z,37.00
2023-04-16T14:54:09.976Z,39.70
2023-04-16T14:56:38.475Z,40.70
2023-04-16T14:59:07.042Z,39.80
2023-04-16T15:01:36.507Z,33.70
2023-04-16T15:04:05.137Z,40.10
2023-04-16T15:06:34.134Z,37.10
2023-04-16T15:09:03.534Z,38.90
2023-04-16T15:11:32.017Z,38.70
2023-04-16T15:14:00.603Z,38.20
2023-04-16T15:16:29.054Z,41.60
2023-04-16T15:18:57.786Z,36.10
2023-04-16T15:21:26.878Z,34.00
2023-04-16T15:23:55.800Z,32.70
2023-04-16T15:26:24.147Z,40.20
2023-04-16T15:28:52.636Z,37.50
2023-04-16T15:31:22.172Z,36.90
2023-04-16T15:33:51.041Z,37.20
2023-04-16T15:36:19.929Z,40.10
2023-04-16T15:38:48.304Z,39.20
2023-04-16T15:41:16.688Z,39.30
2023-04-16T15:43:45.688Z,36.30
2023-04-16T15:46:15.231Z,32.50
2023-04-16T15:48:43.692Z,31.90
2023-04-16T15:51:13.079Z,32.20
2023-04-16T15:53:41.462Z,32.30
2023-04-16T15:56:09.844Z,30.00
2023-04-16T15:58:38.740Z,30.70
2023-04-16T16:01:07.116Z,32.60
2023-04-16T16:03:38.457Z,37.20
2023-04-16T16:06:09.101Z,31.50
2023-04-16T16:08:38.711Z,36.70
2023-04-16T16:11:07.397Z,34.70
2023-04-16T16:13:39.162Z,32.30
2023-04-16T16:16:08.072Z,32.70
2023-04-16T16:18:37.260Z,30.00
2023-04-16T16:21:06.456Z,30.60
2023-04-16T16:26:06.501Z,31.40
2023-04-16T16:28:38.087Z,34.50
2023-04-16T16:31:07.532Z,37.40
2023-04-16T16:33:37.370Z,31.90
2023-04-16T16:36:10.739Z,34.20
2023-04-16T16:38:43.041Z,31.70
2023-04-16T16:41:11.524Z,33.00
2023-04-16T16:43:39.900Z,33.50
2023-04-16T16:46:10.131Z,29.00
2023-04-16T16:48:38.541Z,31.80
2023-04-16T16:53:06.197Z,31.70
2023-04-16T16:55:35.838Z,34.00
2023-04-16T16:58:04.280Z,32.80
2023-04-16T17:00:32.648Z,32.90
2023-04-16T17:03:01.421Z,32.50
2023-04-16T17:05:30.150Z,32.20
2023-04-16T17:07:58.944Z,28.50
2023-04-16T17:10:27.397Z,33.90
2023-04-16T17:12:56.206Z,39.90
2023-04-16T17:15:24.694Z,32.40
2023-04-16T17:17:53.094Z,39.30
2023-04-16T17:20:21.671Z,37.00
2023-04-16T17:22:51.376Z,37.30
2023-04-16T17:25:20.062Z,37.90
2023-04-16T17:27:48.442Z,39.30
2023-04-16T17:30:17.138Z,42.20
2023-04-16T17:32:45.650Z,41.60
2023-04-16T17:35:14.061Z,39.30
2023-04-16T17:37:42.586Z,42.80
2023-04-16T17:40:14.565Z,39.80
2023-04-16T17:42:43.030Z,45.50
2023-04-16T17:45:11.948Z,38.00
2023-04-16T17:50:10.730Z,43.30
2023-04-16T17:52:39.316Z,43.00
2023-04-16T17:55:08.060Z,33.60
2023-04-16T17:57:37.439Z,41.00
2023-04-16T18:00:08.254Z,38.70
2023-04-16T18:02:41.218Z,40.60
2023-04-16T18:05:10.250Z,34.80
2023-04-16T18:07:39.333Z,36.80
2023-04-16T18:10:09.034Z,40.10
2023-04-16T18:12:37.526Z,37.80
2023-04-16T18:15:07.336Z,35.80
2023-04-16T18:17:35.925Z,37.00
2023-04-16T18:25:05.492Z,34.90
2023-04-16T18:27:34.060Z,36.50
2023-04-16T18:30:04.464Z,40.80
2023-04-16T18:32:33.777Z,31.80
2023-04-16T18:35:02.383Z,36.40
2023-04-16T18:37:31.158Z,38.60
2023-04-16T18:39:59.952Z,38.20
2023-04-16T18:42:28.536Z,37.70
2023-04-16T18:44:57.122Z,36.80
2023-04-16T18:47:25.742Z,32.90
2023-04-16T18:49:54.191Z,35.50
2023-04-16T18:52:22.778Z,38.80
2023-04-16T18:54:51.156Z,35.60
2023-04-16T18:57:19.640Z,35.10
2023-04-16T18:59:48.535Z,41.20
2023-04-16T19:02:16.982Z,36.70
2023-04-16T19:04:45.397Z,33.70
2023-04-16T19:07:13.783Z,37.30
2023-04-16T19:09:43.417Z,36.20
2023-04-16T19:12:11.772Z,39.20
2023-04-16T19:14:40.666Z,40.80
2023-04-16T19:19:39.071Z,45.10
2023-04-16T19:22:07.857Z,42.20
2023-04-16T19:24:36.444Z,36.80
2023-04-16T19:27:04.825Z,35.90
2023-04-16T19:29:35.065Z,41.80
2023-04-16T19:32:03.684Z,47.90
2023-04-16T19:34:33.664Z,40.30
2023-04-16T19:37:02.057Z,40.60
2023-04-16T19:39:31.953Z,38.50
2023-04-16T19:42:01.980Z,39.90
2023-04-16T19:44:30.765Z,39.70
2023-04-16T19:46:59.563Z,38.20
2023-04-16T19:49:34.603Z,38.00
2023-04-16T19:52:03.080Z,43.30
2023-04-16T19:54:33.857Z,38.60
2023-04-16T19:57:02.403Z,39.10
2023-04-16T19:59:32.520Z,38.40
2023-04-16T20:02:01.610Z,44.40
2023-04-16T20:04:30.219Z,46.60
2023-04-16T20:06:58.898Z,39.40
2023-04-16T20:09:27.273Z,44.10
2023-04-16T20:11:55.766Z,43.20
2023-04-16T20:14:24.145Z,44.00
2023-04-16T20:16:53.076Z,37.60
2023-04-16T20:19:22.333Z,39.20
2023-04-16T20:21:51.017Z,45.40
2023-04-16T20:24:19.407Z,42.30
2023-04-16T20:26:47.893Z,39.60
2023-04-16T20:29:16.775Z,40.40
2023-04-16T20:31:46.490Z,32.40
2023-04-16T20:34:14.973Z,44.80
2023-04-16T20:36:43.672Z,42.10
2023-04-16T20:39:12.820Z,43.80
2023-04-16T20:41:44.533Z,40.40
2023-04-16T20:44:18.378Z,41.70
2023-04-16T20:46:50.051Z,39.90
2023-04-16T20:49:18.778Z,41.70
2023-04-16T20:51:47.058Z,30.50
2023-04-16T20:54:15.436Z,37.80
2023-04-16T20:56:45.076Z,35.40
2023-04-16T20:59:13.741Z,35.10
2023-04-16T21:01:42.809Z,29.70
2023-04-16T21:04:11.492Z,29.60
2023-04-16T21:06:43.181Z,32.60
2023-04-16T21:09:11.924Z,29.50
2023-04-16T21:11:41.886Z,35.00
2023-04-16T21:14:10.781Z,32.30
2023-04-16T21:16:40.697Z,32.30
2023-04-16T21:19:09.345Z,38.60
2023-04-16T21:21:39.100Z,33.30
2023-04-16T21:24:07.789Z,34.40
2023-04-16T21:26:36.216Z,30.20
2023-04-16T21:29:04.760Z,26.80
2023-04-16T21:31:33.172Z,32.30
2023-04-16T21:34:01.627Z,28.30
2023-04-16T21:36:32.354Z,29.20
2023-04-16T21:39:01.143Z,30.10
2023-04-16T21:41:29.763Z,28.10
2023-04-16T21:43:58.117Z,32.10
2023-04-16T21:46:27.326Z,30.00
2023-04-16T21:48:55.701Z,32.10
2023-04-16T21:51:29.619Z,28.40
2023-04-16T21:53:58.087Z,28.90
2023-04-16T21:56:26.774Z,29.90
2023-04-16T21:58:55.055Z,31.20
2023-04-16T22:01:23.477Z,30.50
2023-04-16T22:03:52.378Z,27.40
2023-04-16T22:06:20.930Z,26.60
2023-04-16T22:08:50.316Z,29.60
2023-04-16T22:13:48.543Z,32.90
2023-04-16T22:16:17.211Z,32.50
2023-04-16T22:18:46.529Z,28.40
2023-04-16T22:21:14.896Z,32.30
2023-04-16T22:23:43.268Z,30.30
2023-04-16T22:26:13.087Z,33.30
2023-04-16T22:28:41.869Z,35.80
2023-04-16T22:31:10.355Z,29.60
2023-04-16T22:33:38.938Z,31.60
2023-04-16T22:36:08.543Z,35.10
2023-04-16T22:38:39.094Z,34.20
2023-04-16T22:41:07.572Z,31.20
2023-04-16T22:43:37.482Z,38.10
2023-04-16T22:46:06.879Z,34.40
2023-04-16T22:51:08.363Z,41.10
2023-04-16T22:53:37.806Z,32.10
2023-04-16T22:56:06.794Z,29.90
2023-04-16T22:58:35.240Z,30.00
2023-04-16T23:01:03.876Z,31.70
2023-04-16T23:03:32.775Z,30.20
2023-04-16T23:06:01.202Z,30.40
2023-04-16T23:08:30.507Z,26.00
2023-04-16T23:10:59.089Z,30.50
2023-04-16T23:13:27.680Z,30.00
2023-04-16T23:15:56.302Z,28.70
2023-04-16T23:18:25.768Z,26.80
2023-04-16T23:20:54.253Z,30.80
2023-04-16T23:23:22.936Z,24.50
2023-04-16T23:25:54.494Z,28.60
2023-04-16T23:28:23.082Z,28.20
2023-04-16T23:30:53.137Z,26.40
2023-04-16T23:33:21.893Z,24.30
2023-04-16T23:35:50.284Z,24.60
2023-04-16T23:38:18.861Z,22.50
2023-04-16T23:40:47.235Z,25.80
2023-04-16T23:43:16.137Z,25.90
2023-04-16T23:45:44.551Z,25.40
2023-04-16T23:48:13.196Z,23.80
2023-04-16T23:50:41.689Z,24.90
2023-04-16T23:53:10.574Z,25.00
2023-04-16T23:55:38.955Z,24.80
2023-04-16T23:58:07.337Z,22.20
